sensor_id;sensor_type;location;lat;lon;timestamp;temperature;humidity
37378;DHT22;23248;48.120;14.854;2022-07-18T00:01:32;13.60;99.90
37378;DHT22;23248;48.120;14.854;2022-07-18T00:03:58;13.60;99.90
37378;DHT22;23248;48.120;14.854;2022-07-18T00:06:24;13.50;99.90
37378;DHT22;23248;48.120;14.854;2022-07-18T00:08:50;13.50;99.90
37378;DHT22;23248;48.120;14.854;2022-07-18T00:11:15;13.50;99.90
37378;DHT22;23248;48.120;14.854;2022-07-18T00:13:41;13.50;99.90
37378;DHT22;23248;48.120;14.854;2022-07-18T00:16:07;13.40;99.90
37378;DHT22;23248;48.120;14.854;2022-07-18T00:18:33;13.40;99.90
37378;DHT22;23248;48.120;14.854;2022-07-18T00:20:58;13.30;99.90
37378;DHT22;23248;48.120;14.854;2022-07-18T00:23:24;13.30;99.90
37378;DHT22;23248;48.120;14.854;2022-07-18T00:25:50;13.30;99.90
37378;DHT22;23248;48.120;14.854;2022-07-18T00:28:15;13.30;99.90
37378;DHT22;23248;48.120;14.854;2022-07-18T00:30:41;13.30;99.90
37378;DHT22;23248;48.120;14.854;2022-07-18T00:33:06;13.30;99.90
37378;DHT22;23248;48.120;14.854;2022-07-18T00:35:32;13.30;99.90
37378;DHT22;23248;48.120;14.854;2022-07-18T00:37:58;13.20;99.90
37378;DHT22;23248;48.120;14.854;2022-07-18T00:40:24;13.10;99.90
37378;DHT22;23248;48.120;14.854;2022-07-18T00:42:49;13.10;99.90
37378;DHT22;23248;48.120;14.854;2022-07-18T00:45:15;13.10;99.90
37378;DHT22;23248;48.120;14.854;2022-07-18T00:47:41;13.00;99.90
37378;DHT22;23248;48.120;14.854;2022-07-18T00:50:07;13.00;99.90
37378;DHT22;23248;48.120;14.854;2022-07-18T00:52:33;13.00;99.90
37378;DHT22;23248;48.120;14.854;2022-07-18T00:54:59;13.00;99.90
37378;DHT22;23248;48.120;14.854;2022-07-18T00:57:25;13.00;99.90
37378;DHT22;23248;48.120;14.854;2022-07-18T00:59:50;13.00;99.90
37378;DHT22;23248;48.120;14.854;2022-07-18T01:02:35;13.00;99.90
37378;DHT22;23248;48.120;14.854;2022-07-18T01:05:01;12.90;99.90
37378;DHT22;23248;48.120;14.854;2022-07-18T01:07:26;12.90;99.90
37378;DHT22;23248;48.120;14.854;2022-07-18T01:09:52;12.90;99.90
37378;DHT22;23248;48.120;14.854;2022-07-18T01:12:18;12.90;99.90
37378;DHT22;23248;48.120;14.854;2022-07-18T01:14:44;12.90;99.90
37378;DHT22;23248;48.120;14.854;2022-07-18T01:17:17;12.90;99.90
37378;DHT22;23248;48.120;14.854;2022-07-18T01:19:43;12.90;99.90
37378;DHT22;23248;48.120;14.854;2022-07-18T01:22:09;12.80;99.90
37378;DHT22;23248;48.120;14.854;2022-07-18T01:24:35;12.80;99.90
37378;DHT22;23248;48.120;14.854;2022-07-18T01:27:01;12.80;99.90
37378;DHT22;23248;48.120;14.854;2022-07-18T01:29:27;12.80;99.90
37378;DHT22;23248;48.120;14.854;2022-07-18T01:31:52;12.80;99.90
37378;DHT22;23248;48.120;14.854;2022-07-18T01:34:21;12.80;99.90
37378;DHT22;23248;48.120;14.854;2022-07-18T01:36:47;12.70;99.90
37378;DHT22;23248;48.120;14.854;2022-07-18T01:39:13;12.80;99.90
37378;DHT22;23248;48.120;14.854;2022-07-18T01:41:38;12.70;99.90
37378;DHT22;23248;48.120;14.854;2022-07-18T01:44:04;12.70;99.90
37378;DHT22;23248;48.120;14.854;2022-07-18T01:46:30;12.70;99.90
37378;DHT22;23248;48.120;14.854;2022-07-18T01:48:55;12.70;99.90
37378;DHT22;23248;48.120;14.854;2022-07-18T01:51:21;12.60;99.90
37378;DHT22;23248;48.120;14.854;2022-07-18T01:53:53;12.70;99.90
37378;DHT22;23248;48.120;14.854;2022-07-18T01:56:19;12.70;99.90
37378;DHT22;23248;48.120;14.854;2022-07-18T01:58:44;12.70;99.90
37378;DHT22;23248;48.120;14.854;2022-07-18T02:01:10;12.80;99.90
37378;DHT22;23248;48.120;14.854;2022-07-18T02:03:35;12.80;99.90
37378;DHT22;23248;48.120;14.854;2022-07-18T02:06:01;12.80;99.90
37378;DHT22;23248;48.120;14.854;2022-07-18T02:08:27;12.80;99.90
37378;DHT22;23248;48.120;14.854;2022-07-18T02:10:52;12.90;99.90
37378;DHT22;23248;48.120;14.854;2022-07-18T02:13:18;12.90;99.90
37378;DHT22;23248;48.120;14.854;2022-07-18T02:15:45;12.90;99.90
37378;DHT22;23248;48.120;14.854;2022-07-18T02:18:11;12.90;99.90
37378;DHT22;23248;48.120;14.854;2022-07-18T02:20:36;12.90;99.90
37378;DHT22;23248;48.120;14.854;2022-07-18T02:23:04;12.80;99.90
37378;DHT22;23248;48.120;14.854;2022-07-18T02:25:30;12.70;99.90
37378;DHT22;23248;48.120;14.854;2022-07-18T02:27:55;12.70;99.90
37378;DHT22;23248;48.120;14.854;2022-07-18T02:30:21;12.60;99.90
37378;DHT22;23248;48.120;14.854;2022-07-18T02:32:47;12.60;99.90
37378;DHT22;23248;48.120;14.854;2022-07-18T02:35:12;12.50;99.90
37378;DHT22;23248;48.120;14.854;2022-07-18T02:37:38;12.50;99.90
37378;DHT22;23248;48.120;14.854;2022-07-18T02:40:06;12.50;99.90
37378;DHT22;23248;48.120;14.854;2022-07-18T02:42:33;12.50;99.90
37378;DHT22;23248;48.120;14.854;2022-07-18T02:44:58;12.50;99.90
37378;DHT22;23248;48.120;14.854;2022-07-18T02:47:24;12.40;99.90
37378;DHT22;23248;48.120;14.854;2022-07-18T02:49:49;12.40;99.90
37378;DHT22;23248;48.120;14.854;2022-07-18T02:52:15;12.30;99.90
37378;DHT22;23248;48.120;14.854;2022-07-18T02:54:41;12.30;99.90
37378;DHT22;23248;48.120;14.854;2022-07-18T02:57:06;12.30;99.90
37378;DHT22;23248;48.120;14.854;2022-07-18T02:59:32;12.20;99.90
37378;DHT22;23248;48.120;14.854;2022-07-18T03:01:58;12.20;99.90
37378;DHT22;23248;48.120;14.854;2022-07-18T03:04:24;12.20;99.90
37378;DHT22;23248;48.120;14.854;2022-07-18T03:06:50;12.20;99.90
37378;DHT22;23248;48.120;14.854;2022-07-18T03:09:16;12.10;99.90
37378;DHT22;23248;48.120;14.854;2022-07-18T03:11:42;12.20;99.90
37378;DHT22;23248;48.120;14.854;2022-07-18T03:14:07;12.10;99.90
37378;DHT22;23248;48.120;14.854;2022-07-18T03:16:33;12.10;99.90
37378;DHT22;23248;48.120;14.854;2022-07-18T03:18:59;12.10;99.90
37378;DHT22;23248;48.120;14.854;2022-07-18T03:21:24;12.00;99.90
37378;DHT22;23248;48.120;14.854;2022-07-18T03:23:50;12.00;99.90
37378;DHT22;23248;48.120;14.854;2022-07-18T03:26:16;12.10;99.90
37378;DHT22;23248;48.120;14.854;2022-07-18T03:28:41;12.00;99.90
37378;DHT22;23248;48.120;14.854;2022-07-18T03:31:07;12.00;99.90
37378;DHT22;23248;48.120;14.854;2022-07-18T03:33:33;12.10;99.90
37378;DHT22;23248;48.120;14.854;2022-07-18T03:35:58;12.10;99.90
37378;DHT22;23248;48.120;14.854;2022-07-18T03:38:24;12.10;99.90
37378;DHT22;23248;48.120;14.854;2022-07-18T03:40:49;12.10;99.90
37378;DHT22;23248;48.120;14.854;2022-07-18T03:43:15;12.10;99.90
37378;DHT22;23248;48.120;14.854;2022-07-18T03:45:40;12.20;99.90
37378;DHT22;23248;48.120;14.854;2022-07-18T03:48:06;12.20;99.90
37378;DHT22;23248;48.120;14.854;2022-07-18T03:50:32;12.20;99.90
37378;DHT22;23248;48.120;14.854;2022-07-18T03:52:59;12.20;99.90
37378;DHT22;23248;48.120;14.854;2022-07-18T03:55:24;12.30;99.90
37378;DHT22;23248;48.120;14.854;2022-07-18T03:57:50;12.30;99.90
37378;DHT22;23248;48.120;14.854;2022-07-18T04:00:15;12.30;99.90
37378;DHT22;23248;48.120;14.854;2022-07-18T04:02:45;12.30;99.90
37378;DHT22;23248;48.120;14.854;2022-07-18T04:05:11;12.30;99.90
37378;DHT22;23248;48.120;14.854;2022-07-18T04:07:37;12.40;99.90
37378;DHT22;23248;48.120;14.854;2022-07-18T04:10:03;12.40;99.90
37378;DHT22;23248;48.120;14.854;2022-07-18T04:12:29;12.30;99.90
37378;DHT22;23248;48.120;14.854;2022-07-18T04:14:56;12.30;99.90
37378;DHT22;23248;48.120;14.854;2022-07-18T04:17:21;12.40;99.90
37378;DHT22;23248;48.120;14.854;2022-07-18T04:19:47;12.40;99.90
37378;DHT22;23248;48.120;14.854;2022-07-18T04:22:13;12.40;99.90
37378;DHT22;23248;48.120;14.854;2022-07-18T04:24:38;12.50;99.90
37378;DHT22;23248;48.120;14.854;2022-07-18T04:27:04;12.60;99.90
37378;DHT22;23248;48.120;14.854;2022-07-18T04:29:29;12.70;99.90
37378;DHT22;23248;48.120;14.854;2022-07-18T04:31:57;12.70;99.90
37378;DHT22;23248;48.120;14.854;2022-07-18T04:34:23;12.80;99.90
37378;DHT22;23248;48.120;14.854;2022-07-18T04:36:48;12.90;99.90
37378;DHT22;23248;48.120;14.854;2022-07-18T04:39:14;13.00;99.90
37378;DHT22;23248;48.120;14.854;2022-07-18T04:41:39;13.00;99.90
37378;DHT22;23248;48.120;14.854;2022-07-18T04:44:06;13.10;99.90
37378;DHT22;23248;48.120;14.854;2022-07-18T04:46:31;13.20;99.90
37378;DHT22;23248;48.120;14.854;2022-07-18T04:48:57;13.30;99.90
37378;DHT22;23248;48.120;14.854;2022-07-18T04:51:22;13.40;99.90
37378;DHT22;23248;48.120;14.854;2022-07-18T04:53:48;13.50;99.90
37378;DHT22;23248;48.120;14.854;2022-07-18T04:56:13;13.60;99.90
37378;DHT22;23248;48.120;14.854;2022-07-18T04:58:39;13.60;99.90
37378;DHT22;23248;48.120;14.854;2022-07-18T05:01:05;13.70;99.90
37378;DHT22;23248;48.120;14.854;2022-07-18T05:03:30;13.70;99.90
37378;DHT22;23248;48.120;14.854;2022-07-18T05:05:56;13.80;99.90
37378;DHT22;23248;48.120;14.854;2022-07-18T05:08:21;13.80;99.90
37378;DHT22;23248;48.120;14.854;2022-07-18T05:10:47;13.80;99.90
37378;DHT22;23248;48.120;14.854;2022-07-18T05:13:12;13.80;99.90
37378;DHT22;23248;48.120;14.854;2022-07-18T05:15:38;13.90;99.90
37378;DHT22;23248;48.120;14.854;2022-07-18T05:18:04;14.00;99.90
37378;DHT22;23248;48.120;14.854;2022-07-18T05:20:29;14.10;99.90
37378;DHT22;23248;48.120;14.854;2022-07-18T05:22:55;14.10;99.90
37378;DHT22;23248;48.120;14.854;2022-07-18T05:25:21;14.20;99.90
37378;DHT22;23248;48.120;14.854;2022-07-18T05:27:49;14.30;99.90
37378;DHT22;23248;48.120;14.854;2022-07-18T05:30:15;14.30;99.90
37378;DHT22;23248;48.120;14.854;2022-07-18T05:32:41;14.40;99.90
37378;DHT22;23248;48.120;14.854;2022-07-18T05:35:07;14.50;99.90
37378;DHT22;23248;48.120;14.854;2022-07-18T05:37:33;14.50;99.90
37378;DHT22;23248;48.120;14.854;2022-07-18T05:40:02;14.60;99.90
37378;DHT22;23248;48.120;14.854;2022-07-18T05:42:28;14.80;99.90
37378;DHT22;23248;48.120;14.854;2022-07-18T05:44:54;14.90;99.90
37378;DHT22;23248;48.120;14.854;2022-07-18T05:47:19;15.00;99.90
37378;DHT22;23248;48.120;14.854;2022-07-18T05:49:45;15.00;99.90
37378;DHT22;23248;48.120;14.854;2022-07-18T05:52:10;15.30;99.90
37378;DHT22;23248;48.120;14.854;2022-07-18T05:54:36;15.70;99.90
37378;DHT22;23248;48.120;14.854;2022-07-18T05:57:02;16.20;99.90
37378;DHT22;23248;48.120;14.854;2022-07-18T05:59:27;16.60;99.90
37378;DHT22;23248;48.120;14.854;2022-07-18T06:01:53;17.00;99.90
37378;DHT22;23248;48.120;14.854;2022-07-18T06:04:19;17.20;99.90
37378;DHT22;23248;48.120;14.854;2022-07-18T06:06:45;17.30;99.90
37378;DHT22;23248;48.120;14.854;2022-07-18T06:09:11;17.30;99.90
37378;DHT22;23248;48.120;14.854;2022-07-18T06:11:37;17.40;99.90
37378;DHT22;23248;48.120;14.854;2022-07-18T06:14:03;17.50;99.90
37378;DHT22;23248;48.120;14.854;2022-07-18T06:16:29;17.60;99.90
37378;DHT22;23248;48.120;14.854;2022-07-18T06:18:55;17.70;99.90
37378;DHT22;23248;48.120;14.854;2022-07-18T06:21:21;17.60;99.90
37378;DHT22;23248;48.120;14.854;2022-07-18T06:23:47;17.70;99.90
37378;DHT22;23248;48.120;14.854;2022-07-18T06:26:12;17.80;99.90
37378;DHT22;23248;48.120;14.854;2022-07-18T06:28:38;17.90;99.90
37378;DHT22;23248;48.120;14.854;2022-07-18T06:31:03;17.90;99.90
37378;DHT22;23248;48.120;14.854;2022-07-18T06:33:29;18.00;99.90
37378;DHT22;23248;48.120;14.854;2022-07-18T06:35:55;18.10;99.90
37378;DHT22;23248;48.120;14.854;2022-07-18T06:38:20;18.30;99.90
37378;DHT22;23248;48.120;14.854;2022-07-18T06:40:46;18.40;99.90
37378;DHT22;23248;48.120;14.854;2022-07-18T06:43:11;18.60;99.90
37378;DHT22;23248;48.120;14.854;2022-07-18T06:45:39;18.80;99.90
37378;DHT22;23248;48.120;14.854;2022-07-18T06:48:04;19.00;99.90
37378;DHT22;23248;48.120;14.854;2022-07-18T06:50:30;19.20;99.90
37378;DHT22;23248;48.120;14.854;2022-07-18T06:52:55;19.20;99.90
37378;DHT22;23248;48.120;14.854;2022-07-18T06:55:21;19.40;99.90
37378;DHT22;23248;48.120;14.854;2022-07-18T06:57:47;19.70;99.90
37378;DHT22;23248;48.120;14.854;2022-07-18T07:00:13;19.90;99.90
37378;DHT22;23248;48.120;14.854;2022-07-18T07:02:42;20.00;99.90
37378;DHT22;23248;48.120;14.854;2022-07-18T07:05:08;20.20;99.90
37378;DHT22;23248;48.120;14.854;2022-07-18T07:07:34;20.40;99.90
37378;DHT22;23248;48.120;14.854;2022-07-18T07:10:00;20.50;99.90
37378;DHT22;23248;48.120;14.854;2022-07-18T07:12:25;20.70;99.90
37378;DHT22;23248;48.120;14.854;2022-07-18T07:14:51;20.90;99.90
37378;DHT22;23248;48.120;14.854;2022-07-18T07:17:16;21.10;99.90
37378;DHT22;23248;48.120;14.854;2022-07-18T07:19:42;21.20;99.90
37378;DHT22;23248;48.120;14.854;2022-07-18T07:22:07;21.20;99.90
37378;DHT22;23248;48.120;14.854;2022-07-18T07:24:33;21.40;99.60
37378;DHT22;23248;48.120;14.854;2022-07-18T07:26:59;21.50;98.30
37378;DHT22;23248;48.120;14.854;2022-07-18T07:29:25;21.60;97.70
37378;DHT22;23248;48.120;14.854;2022-07-18T07:31:51;21.80;96.80
37378;DHT22;23248;48.120;14.854;2022-07-18T07:34:16;21.90;97.20
37378;DHT22;23248;48.120;14.854;2022-07-18T07:36:42;22.10;97.40
37378;DHT22;23248;48.120;14.854;2022-07-18T07:39:07;22.30;96.80
37378;DHT22;23248;48.120;14.854;2022-07-18T07:41:33;22.40;96.90
37378;DHT22;23248;48.120;14.854;2022-07-18T07:43:58;22.40;95.30
37378;DHT22;23248;48.120;14.854;2022-07-18T07:46:26;22.50;94.00
37378;DHT22;23248;48.120;14.854;2022-07-18T07:48:51;22.50;94.30
37378;DHT22;23248;48.120;14.854;2022-07-18T07:51:17;22.70;93.90
37378;DHT22;23248;48.120;14.854;2022-07-18T07:53:42;22.80;93.60
37378;DHT22;23248;48.120;14.854;2022-07-18T07:56:08;22.90;91.90
37378;DHT22;23248;48.120;14.854;2022-07-18T07:58:33;23.00;92.30
37378;DHT22;23248;48.120;14.854;2022-07-18T08:00:59;23.10;91.10
37378;DHT22;23248;48.120;14.854;2022-07-18T08:03:25;23.30;90.60
37378;DHT22;23248;48.120;14.854;2022-07-18T08:05:50;23.40;90.60
37378;DHT22;23248;48.120;14.854;2022-07-18T08:08:16;23.60;90.70
37378;DHT22;23248;48.120;14.854;2022-07-18T08:10:43;23.80;88.50
37378;DHT22;23248;48.120;14.854;2022-07-18T08:13:09;23.80;87.50
37378;DHT22;23248;48.120;14.854;2022-07-18T08:15:35;23.90;86.70
37378;DHT22;23248;48.120;14.854;2022-07-18T08:18:01;23.80;88.00
37378;DHT22;23248;48.120;14.854;2022-07-18T08:20:27;24.00;86.70
37378;DHT22;23248;48.120;14.854;2022-07-18T08:22:53;24.20;85.00
37378;DHT22;23248;48.120;14.854;2022-07-18T08:25:19;24.50;84.80
37378;DHT22;23248;48.120;14.854;2022-07-18T08:27:45;24.60;82.60
37378;DHT22;23248;48.120;14.854;2022-07-18T08:30:10;24.50;82.20
37378;DHT22;23248;48.120;14.854;2022-07-18T08:32:36;24.60;81.90
37378;DHT22;23248;48.120;14.854;2022-07-18T08:35:02;24.60;82.70
37378;DHT22;23248;48.120;14.854;2022-07-18T08:37:27;24.80;80.10
37378;DHT22;23248;48.120;14.854;2022-07-18T08:39:53;24.90;79.70
37378;DHT22;23248;48.120;14.854;2022-07-18T08:42:18;25.00;79.30
37378;DHT22;23248;48.120;14.854;2022-07-18T08:44:45;25.00;79.50
37378;DHT22;23248;48.120;14.854;2022-07-18T08:47:12;25.00;78.40
37378;DHT22;23248;48.120;14.854;2022-07-18T08:49:40;25.10;78.90
37378;DHT22;23248;48.120;14.854;2022-07-18T08:52:06;25.10;77.50
37378;DHT22;23248;48.120;14.854;2022-07-18T08:54:32;25.10;81.10
37378;DHT22;23248;48.120;14.854;2022-07-18T08:56:58;25.10;79.90
37378;DHT22;23248;48.120;14.854;2022-07-18T08:59:23;25.30;78.00
37378;DHT22;23248;48.120;14.854;2022-07-18T09:01:49;25.50;78.00
37378;DHT22;23248;48.120;14.854;2022-07-18T09:04:31;25.60;76.70
37378;DHT22;23248;48.120;14.854;2022-07-18T09:06:56;25.50;75.30
37378;DHT22;23248;48.120;14.854;2022-07-18T09:09:23;25.60;76.80
37378;DHT22;23248;48.120;14.854;2022-07-18T09:11:56;25.70;77.50
37378;DHT22;23248;48.120;14.854;2022-07-18T09:14:41;25.90;75.00
37378;DHT22;23248;48.120;14.854;2022-07-18T09:17:11;26.00;76.10
37378;DHT22;23248;48.120;14.854;2022-07-18T09:19:37;26.30;74.30
37378;DHT22;23248;48.120;14.854;2022-07-18T09:22:19;26.30;73.00
37378;DHT22;23248;48.120;14.854;2022-07-18T09:24:53;26.40;73.30
37378;DHT22;23248;48.120;14.854;2022-07-18T09:27:30;26.50;72.60
37378;DHT22;23248;48.120;14.854;2022-07-18T09:30:16;26.60;72.50
37378;DHT22;23248;48.120;14.854;2022-07-18T09:32:43;26.80;69.40
37378;DHT22;23248;48.120;14.854;2022-07-18T09:35:09;27.00;67.80
37378;DHT22;23248;48.120;14.854;2022-07-18T09:37:36;27.00;67.10
37378;DHT22;23248;48.120;14.854;2022-07-18T09:40:18;27.00;64.40
37378;DHT22;23248;48.120;14.854;2022-07-18T09:42:48;26.90;65.30
37378;DHT22;23248;48.120;14.854;2022-07-18T09:45:13;27.00;64.30
37378;DHT22;23248;48.120;14.854;2022-07-18T09:47:52;26.90;65.90
37378;DHT22;23248;48.120;14.854;2022-07-18T09:50:22;27.00;61.60
37378;DHT22;23248;48.120;14.854;2022-07-18T09:55:23;27.20;63.00
37378;DHT22;23248;48.120;14.854;2022-07-18T09:57:56;27.20;61.60
37378;DHT22;23248;48.120;14.854;2022-07-18T10:00:23;27.30;58.90
37378;DHT22;23248;48.120;14.854;2022-07-18T10:02:48;27.60;62.00
37378;DHT22;23248;48.120;14.854;2022-07-18T10:05:14;27.70;62.60
37378;DHT22;23248;48.120;14.854;2022-07-18T10:07:40;27.70;59.30
37378;DHT22;23248;48.120;14.854;2022-07-18T10:10:06;27.70;58.30
37378;DHT22;23248;48.120;14.854;2022-07-18T10:12:32;27.80;59.50
37378;DHT22;23248;48.120;14.854;2022-07-18T10:14:58;27.70;57.30
37378;DHT22;23248;48.120;14.854;2022-07-18T10:17:24;27.70;56.90
37378;DHT22;23248;48.120;14.854;2022-07-18T10:19:49;27.90;56.20
37378;DHT22;23248;48.120;14.854;2022-07-18T10:22:15;28.10;56.90
37378;DHT22;23248;48.120;14.854;2022-07-18T10:24:41;28.40;57.50
37378;DHT22;23248;48.120;14.854;2022-07-18T10:27:19;28.40;57.10
37378;DHT22;23248;48.120;14.854;2022-07-18T10:32:32;28.80;56.50
37378;DHT22;23248;48.120;14.854;2022-07-18T10:34:59;28.90;54.60
37378;DHT22;23248;48.120;14.854;2022-07-18T10:37:24;29.00;54.70
37378;DHT22;23248;48.120;14.854;2022-07-18T10:39:50;29.10;54.80
37378;DHT22;23248;48.120;14.854;2022-07-18T10:42:16;29.10;55.40
37378;DHT22;23248;48.120;14.854;2022-07-18T10:44:44;29.30;54.30
37378;DHT22;23248;48.120;14.854;2022-07-18T10:47:10;29.30;52.90
37378;DHT22;23248;48.120;14.854;2022-07-18T10:57:30;30.00;47.30
37378;DHT22;23248;48.120;14.854;2022-07-18T11:02:32;30.20;48.20
37378;DHT22;23248;48.120;14.854;2022-07-18T11:04:58;30.40;47.90
37378;DHT22;23248;48.120;14.854;2022-07-18T11:07:24;30.30;47.60
37378;DHT22;23248;48.120;14.854;2022-07-18T11:09:50;30.40;47.70
37378;DHT22;23248;48.120;14.854;2022-07-18T11:12:22;30.50;48.50
37378;DHT22;23248;48.120;14.854;2022-07-18T11:15:01;30.50;48.30
37378;DHT22;23248;48.120;14.854;2022-07-18T11:22:50;30.70;47.90
37378;DHT22;23248;48.120;14.854;2022-07-18T11:25:16;30.50;48.20
37378;DHT22;23248;48.120;14.854;2022-07-18T11:27:43;30.50;46.50
37378;DHT22;23248;48.120;14.854;2022-07-18T11:30:08;30.50;47.70
37378;DHT22;23248;48.120;14.854;2022-07-18T11:32:34;30.40;47.30
37378;DHT22;23248;48.120;14.854;2022-07-18T11:35:00;30.40;46.90
37378;DHT22;23248;48.120;14.854;2022-07-18T11:37:25;30.70;47.20
37378;DHT22;23248;48.120;14.854;2022-07-18T11:39:51;30.70;47.20
37378;DHT22;23248;48.120;14.854;2022-07-18T11:42:17;30.80;49.30
37378;DHT22;23248;48.120;14.854;2022-07-18T11:44:44;30.80;49.00
37378;DHT22;23248;48.120;14.854;2022-07-18T11:47:11;30.70;48.40
37378;DHT22;23248;48.120;14.854;2022-07-18T11:49:38;30.80;48.70
37378;DHT22;23248;48.120;14.854;2022-07-18T11:52:04;31.10;45.70
37378;DHT22;23248;48.120;14.854;2022-07-18T11:54:30;31.20;46.20
37378;DHT22;23248;48.120;14.854;2022-07-18T11:56:58;31.20;46.30
37378;DHT22;23248;48.120;14.854;2022-07-18T11:59:35;30.80;47.00
37378;DHT22;23248;48.120;14.854;2022-07-18T12:02:01;30.20;48.90
37378;DHT22;23248;48.120;14.854;2022-07-18T12:04:27;30.30;47.80
37378;DHT22;23248;48.120;14.854;2022-07-18T12:07:12;30.30;46.80
37378;DHT22;23248;48.120;14.854;2022-07-18T12:09:37;30.50;46.70
37378;DHT22;23248;48.120;14.854;2022-07-18T12:12:07;30.60;46.70
37378;DHT22;23248;48.120;14.854;2022-07-18T12:14:32;30.80;48.60
37378;DHT22;23248;48.120;14.854;2022-07-18T12:16:58;30.70;47.20
37378;DHT22;23248;48.120;14.854;2022-07-18T12:19:32;30.80;47.90
37378;DHT22;23248;48.120;14.854;2022-07-18T12:29:54;31.10;48.30
37378;DHT22;23248;48.120;14.854;2022-07-18T12:32:23;31.30;46.60
37378;DHT22;23248;48.120;14.854;2022-07-18T12:34:56;31.70;46.50
37378;DHT22;23248;48.120;14.854;2022-07-18T12:37:23;32.10;44.30
37378;DHT22;23248;48.120;14.854;2022-07-18T12:39:49;32.20;45.50
37378;DHT22;23248;48.120;14.854;2022-07-18T12:42:36;32.40;45.60
37378;DHT22;23248;48.120;14.854;2022-07-18T12:45:03;32.70;45.20
37378;DHT22;23248;48.120;14.854;2022-07-18T12:47:28;33.00;46.00
37378;DHT22;23248;48.120;14.854;2022-07-18T12:49:54;33.20;45.10
37378;DHT22;23248;48.120;14.854;2022-07-18T12:52:20;33.30;44.30
37378;DHT22;23248;48.120;14.854;2022-07-18T12:54:46;33.40;43.20
37378;DHT22;23248;48.120;14.854;2022-07-18T12:57:12;33.30;43.50
37378;DHT22;23248;48.120;14.854;2022-07-18T12:59:37;33.30;43.70
37378;DHT22;23248;48.120;14.854;2022-07-18T13:02:03;33.30;44.60
37378;DHT22;23248;48.120;14.854;2022-07-18T13:04:29;33.40;43.50
37378;DHT22;23248;48.120;14.854;2022-07-18T13:06:55;33.50;43.50
37378;DHT22;23248;48.120;14.854;2022-07-18T13:09:20;33.60;43.10
37378;DHT22;23248;48.120;14.854;2022-07-18T13:11:47;33.60;41.50
37378;DHT22;23248;48.120;14.854;2022-07-18T13:14:16;33.40;43.40
37378;DHT22;23248;48.120;14.854;2022-07-18T13:16:42;33.60;41.80
37378;DHT22;23248;48.120;14.854;2022-07-18T13:19:13;33.70;41.50
37378;DHT22;23248;48.120;14.854;2022-07-18T13:21:39;33.80;43.00
37378;DHT22;23248;48.120;14.854;2022-07-18T13:24:05;33.90;42.70
37378;DHT22;23248;48.120;14.854;2022-07-18T13:26:31;34.10;42.20
37378;DHT22;23248;48.120;14.854;2022-07-18T13:28:57;34.20;40.90
37378;DHT22;23248;48.120;14.854;2022-07-18T13:31:23;34.20;41.50
37378;DHT22;23248;48.120;14.854;2022-07-18T13:33:48;34.00;42.00
37378;DHT22;23248;48.120;14.854;2022-07-18T13:36:16;34.40;41.10
37378;DHT22;23248;48.120;14.854;2022-07-18T13:38:42;34.40;42.50
37378;DHT22;23248;48.120;14.854;2022-07-18T13:41:08;34.00;41.20
37378;DHT22;23248;48.120;14.854;2022-07-18T13:43:34;33.80;41.20
37378;DHT22;23248;48.120;14.854;2022-07-18T13:46:02;33.70;44.50
37378;DHT22;23248;48.120;14.854;2022-07-18T13:48:27;33.30;42.60
37378;DHT22;23248;48.120;14.854;2022-07-18T13:50:53;32.80;43.60
37378;DHT22;23248;48.120;14.854;2022-07-18T13:53:18;32.60;42.80
37378;DHT22;23248;48.120;14.854;2022-07-18T13:55:44;32.30;43.70
37378;DHT22;23248;48.120;14.854;2022-07-18T13:58:09;32.20;43.40
37378;DHT22;23248;48.120;14.854;2022-07-18T14:00:35;32.10;42.30
37378;DHT22;23248;48.120;14.854;2022-07-18T14:03:01;31.90;43.10
37378;DHT22;23248;48.120;14.854;2022-07-18T14:05:26;32.20;42.60
37378;DHT22;23248;48.120;14.854;2022-07-18T14:07:52;32.40;42.10
37378;DHT22;23248;48.120;14.854;2022-07-18T14:10:18;33.10;42.00
37378;DHT22;23248;48.120;14.854;2022-07-18T14:12:43;33.60;42.00
37378;DHT22;23248;48.120;14.854;2022-07-18T14:15:09;33.90;41.20
37378;DHT22;23248;48.120;14.854;2022-07-18T14:17:35;34.10;41.00
37378;DHT22;23248;48.120;14.854;2022-07-18T14:20:00;33.80;41.10
37378;DHT22;23248;48.120;14.854;2022-07-18T14:22:26;33.60;40.50
37378;DHT22;23248;48.120;14.854;2022-07-18T14:24:51;33.80;41.60
37378;DHT22;23248;48.120;14.854;2022-07-18T14:27:17;33.70;42.00
37378;DHT22;23248;48.120;14.854;2022-07-18T14:29:43;33.90;43.30
37378;DHT22;23248;48.120;14.854;2022-07-18T14:32:08;33.80;42.80
37378;DHT22;23248;48.120;14.854;2022-07-18T14:34:34;34.00;41.80
37378;DHT22;23248;48.120;14.854;2022-07-18T14:37:00;33.50;40.80
37378;DHT22;23248;48.120;14.854;2022-07-18T14:39:25;33.30;42.60
37378;DHT22;23248;48.120;14.854;2022-07-18T14:41:51;33.60;41.30
37378;DHT22;23248;48.120;14.854;2022-07-18T14:44:17;33.70;41.00
37378;DHT22;23248;48.120;14.854;2022-07-18T14:46:43;34.00;41.70
37378;DHT22;23248;48.120;14.854;2022-07-18T14:49:08;34.40;41.00
37378;DHT22;23248;48.120;14.854;2022-07-18T14:51:34;34.40;41.80
37378;DHT22;23248;48.120;14.854;2022-07-18T14:54:00;34.30;42.40
37378;DHT22;23248;48.120;14.854;2022-07-18T14:56:25;33.80;43.70
37378;DHT22;23248;48.120;14.854;2022-07-18T14:58:51;33.50;42.80
37378;DHT22;23248;48.120;14.854;2022-07-18T15:01:17;33.10;44.10
37378;DHT22;23248;48.120;14.854;2022-07-18T15:03:45;32.80;44.10
37378;DHT22;23248;48.120;14.854;2022-07-18T15:06:10;32.60;43.70
37378;DHT22;23248;48.120;14.854;2022-07-18T15:08:36;32.70;42.70
37378;DHT22;23248;48.120;14.854;2022-07-18T15:11:01;33.10;43.30
37378;DHT22;23248;48.120;14.854;2022-07-18T15:13:27;33.00;43.10
37378;DHT22;23248;48.120;14.854;2022-07-18T15:15:53;33.20;43.10
37378;DHT22;23248;48.120;14.854;2022-07-18T15:18:18;33.10;43.20
37378;DHT22;23248;48.120;14.854;2022-07-18T15:20:44;32.80;43.90
37378;DHT22;23248;48.120;14.854;2022-07-18T15:23:09;32.40;44.90
37378;DHT22;23248;48.120;14.854;2022-07-18T15:25:35;32.20;44.50
37378;DHT22;23248;48.120;14.854;2022-07-18T15:28:01;32.10;43.80
37378;DHT22;23248;48.120;14.854;2022-07-18T15:30:26;32.20;43.90
37378;DHT22;23248;48.120;14.854;2022-07-18T15:32:52;32.20;46.30
37378;DHT22;23248;48.120;14.854;2022-07-18T15:35:17;32.10;47.10
37378;DHT22;23248;48.120;14.854;2022-07-18T15:37:43;32.00;45.80
37378;DHT22;23248;48.120;14.854;2022-07-18T15:40:09;32.00;47.60